Terminal Aerodrome Forecast
Issued by NWS Wilmington, OH

Current Version | Previous Version | Text Only | Print | Product List | Glossary Off
Versions: 1 2 3 4 5 6 7 8 9 10 11 12 13 14 15 16 17 18 19 20 21 22 23

000
FTUS41 KILN 302334
TAFCVG
TAF
KCVG 302334Z 3100/0106 VRB04KT P6SM SKC
     FM311500 28007KT P6SM SKC
     FM311900 29009KT P6SM SCT050
     FM010400 22006KT P6SM BKN050=

USA.gov is the U.S. government's official web portal to all federal, state and local government web resources and services.